Peru, IL

4:03 AM CDT on March 23, 2017 (GMT -0500)
Illinois Valley Regional-Duncan

Weather History for KVYS - January, 2014

Change the Weather History Date:

Friday, January 3, 2014

  Actual Average Record
Temperature  
Mean Temperature 10 °F -  
Max Temperature 21 °F 30 °F 48 °F (2004)
Min Temperature -1 °F 13 °F -13 °F (1979)
Degree Days  
Heating Degree Days 55    
Moisture  
Dew Point 5 °F    
Average Humidity 78    
Maximum Humidity 86    
Minimum Humidity 69    
Precipitation  
Precipitation 0.00 in - - ()
Sea Level Pressure  
Sea Level Pressure 30.23 in    
Wind  
Wind Speed 11 mph (SSW)    
Max Wind Speed 30 mph    
Max Gust Speed 37 mph    
Visibility 10 miles    
Events      
Averages and records for this station are not official NWS values.
T = Trace of Precipitation, MM = Missing Value Source: NWS Daily Summary

Daily Weather History Graph

Daily Weather History Graph

Search for Another Location

Airport or City:

Trip Planner

Search our weather history database for the weather conditions in past years. The results will help you decide how hot, cold, wet, or windy it might be!

Date:

Astronomy

Jan. 03, 2014 Rise Set
Actual Time 7:22 AM CST 4:39 PM CST
Civil Twilight 6:51 AM CST 5:10 PM CST
Nautical Twilight 6:17 AM CST 5:45 PM CST
Astronomical Twilight 5:43 AM CST 6:19 PM CST
Moon 8:46 AM CST (1/3) 7:51 PM CST (1/3)
Length of Visible Light 10h 19m
Length of Day
9h 17m
Waxing Crescent, 8% of the Moon is Illuminated
Jan 3
Waxing Crescent
Jan 7
First Quarter
Jan 15
Full
Jan 23
Last Quarter
Jan 30
New

Hourly Weather History & Observations

Time (CST) Temp. Windchill Dew Point Humidity Pressure Visibility Wind Dir Wind Speed Gust Speed Precip Events Conditions
12:15 AM 2.1 °F -10.4 °F -2.6 °F 81% 30.42 in 10.0 mi NW 6.9 mph - N/A   Clear
12:35 AM 1.4 °F -9.9 °F -3.3 °F 81% 30.42 in 10.0 mi NW 5.8 mph - N/A   Clear
12:55 AM 1.4 °F - -2.6 °F 83% 30.41 in 10.0 mi Calm Calm - N/A   Clear
1:15 AM 0.5 °F -7.3 °F -4.0 °F 81% 30.42 in 10.0 mi West 3.5 mph - N/A   Clear
1:35 AM -0.0 °F -7.9 °F -4.0 °F 83% 30.42 in 10.0 mi West 3.5 mph - N/A   Clear
1:55 AM 0.3 °F -9.5 °F -3.3 °F 85% 30.43 in 10.0 mi NW 4.6 mph - N/A   Clear
2:15 AM -0.9 °F -8.9 °F -5.1 °F 83% 30.43 in 10.0 mi West 3.5 mph - N/A   Clear
2:35 AM -0.9 °F -12.7 °F -4.7 °F 84% 30.43 in 10.0 mi West 5.8 mph - N/A   Clear
2:55 AM -0.4 °F - -4.2 °F 84% 30.43 in 10.0 mi Calm Calm - N/A   Clear
3:15 AM -0.4 °F - -4.2 °F 84% 30.43 in 10.0 mi Calm Calm - N/A   Clear
3:35 AM -0.4 °F - -4.2 °F 84% 30.43 in 10.0 mi Calm Calm - N/A   Clear
3:55 AM -0.9 °F -11.0 °F -4.5 °F 85% 30.43 in 10.0 mi WNW 4.6 mph - N/A   Clear
4:15 AM -0.9 °F -12.7 °F -4.9 °F 83% 30.43 in 10.0 mi WNW 5.8 mph - N/A   Clear
4:35 AM -0.9 °F - -4.5 °F 85% 30.42 in 10.0 mi Calm Calm - N/A   Clear
4:55 AM -1.5 °F - -5.3 °F 84% 30.42 in 10.0 mi Calm Calm - N/A   Clear
5:15 AM -0.9 °F - -4.2 °F 86% 30.42 in 10.0 mi Calm Calm - N/A   Clear
5:35 AM -0.9 °F -8.9 °F -4.5 °F 85% 30.43 in 10.0 mi SW 3.5 mph - N/A   Clear
5:55 AM -1.7 °F -9.7 °F -5.3 °F 85% 30.42 in 10.0 mi SW 3.5 mph - N/A   Clear
6:15 AM -1.7 °F -9.7 °F -4.9 °F 86% 30.42 in 10.0 mi SSW 3.5 mph - N/A   Clear
6:35 AM -0.9 °F -8.9 °F -4.2 °F 86% 30.43 in 10.0 mi WSW 3.5 mph - N/A   Clear
6:55 AM -0.9 °F - -4.2 °F 86% 30.42 in 10.0 mi Calm Calm - N/A   Clear
7:15 AM -1.5 °F -9.5 °F -4.9 °F 85% 30.41 in 10.0 mi South 3.5 mph - N/A   Clear
7:35 AM -1.8 °F -12.0 °F -5.4 °F 85% 30.41 in 10.0 mi South 4.6 mph - N/A   Clear
7:55 AM -0.4 °F -8.3 °F -4.0 °F 85% 30.41 in 10.0 mi SSE 3.5 mph - N/A   Clear
8:15 AM 1.0 °F -8.7 °F -3.1 °F 83% 30.41 in 10.0 mi South 4.6 mph - N/A   Clear
8:35 AM 2.3 °F -8.8 °F -1.7 °F 84% 30.41 in 10.0 mi South 5.8 mph - N/A   Clear
8:55 AM 4.1 °F -8.0 °F 0.3 °F 84% 30.41 in 10.0 mi South 6.9 mph - N/A   Clear
9:15 AM 5.4 °F -5.2 °F 1.6 °F 84% 30.42 in 10.0 mi SSW 5.8 mph - N/A   Clear
9:35 AM 7.0 °F -8.3 °F 2.1 °F 80% 30.40 in 10.0 mi South 11.5 mph - N/A   Clear
9:55 AM 8.6 °F -7.0 °F 2.3 °F 76% 30.40 in 10.0 mi South 12.7 mph - N/A   Clear
10:15 AM 9.1 °F -5.6 °F 2.8 °F 76% 30.38 in 10.0 mi South 11.5 mph - N/A   Clear
10:35 AM 10.8 °F -4.3 °F 3.6 °F 73% 30.37 in 10.0 mi South 12.7 mph - N/A   Scattered Clouds
10:55 AM 11.8 °F -5.3 °F 3.9 °F 71% 30.35 in 10.0 mi South 17.3 mph - N/A   Scattered Clouds
11:15 AM 12.6 °F -2.7 °F 4.1 °F 69% 30.33 in 10.0 mi South 13.8 mph - N/A   Scattered Clouds
11:35 AM 13.1 °F -4.2 °F 5.0 °F 70% 30.31 in 10.0 mi South 18.4 mph 21.9 mph N/A   Clear
11:55 AM 14.4 °F -3.4 °F 6.4 °F 71% 30.29 in 10.0 mi South 20.7 mph - N/A   Scattered Clouds
12:15 PM 14.7 °F -2.0 °F 6.8 °F 71% 30.28 in 10.0 mi South 18.4 mph - N/A   Overcast
12:35 PM 16.3 °F 0.5 °F 8.6 °F 72% 30.26 in 10.0 mi South 17.3 mph 25.3 mph N/A   Mostly Cloudy
12:55 PM 16.5 °F -0.1 °F 9.1 °F 73% 30.25 in 10.0 mi South 19.6 mph - N/A   Overcast
1:15 PM 18.1 °F 2.0 °F 10.2 °F 71% 30.23 in 10.0 mi SSW 19.6 mph 23.0 mph N/A   Overcast
1:35 PM 17.2 °F 0.4 °F 9.5 °F 72% 30.21 in 10.0 mi South 20.7 mph 24.2 mph N/A   Overcast
1:55 PM 16.7 °F 0.5 °F 9.7 °F 74% 30.19 in 10.0 mi South 18.4 mph - N/A   Overcast
2:15 PM 18.0 °F 1.3 °F 10.8 °F 73% 30.18 in 10.0 mi South 20.7 mph 24.2 mph N/A   Overcast
2:35 PM 18.5 °F 0.9 °F 11.1 °F 73% 30.17 in 10.0 mi South 24.2 mph 28.8 mph N/A   Mostly Cloudy
2:55 PM 18.5 °F 0.2 °F 11.3 °F 73% 30.16 in 10.0 mi South 26.5 mph - N/A   Mostly Cloudy
3:15 PM 19.0 °F 2.0 °F 11.3 °F 72% 30.14 in 10.0 mi South 23.0 mph 28.8 mph N/A   Scattered Clouds
3:35 PM 19.2 °F 1.9 °F 11.8 °F 73% 30.13 in 10.0 mi South 24.2 mph 29.9 mph N/A   Scattered Clouds
3:55 PM 19.4 °F 1.4 °F 11.3 °F 71% 30.13 in 10.0 mi South 26.5 mph 31.1 mph N/A   Clear
4:15 PM 19.2 °F 3.4 °F 11.8 °F 73% 30.12 in 10.0 mi South 19.6 mph 31.1 mph N/A   Clear
4:35 PM 18.5 °F 0.6 °F 11.3 °F 73% 30.11 in 10.0 mi South 25.3 mph 31.1 mph N/A   Clear
4:55 PM 18.1 °F -1.2 °F 11.1 °F 74% 30.09 in 10.0 mi South 29.9 mph 36.8 mph N/A   Clear
5:15 PM 17.6 °F -1.0 °F 11.1 °F 76% 30.07 in 10.0 mi South 26.5 mph 31.1 mph N/A   Clear
5:35 PM 18.1 °F 0.1 °F 11.3 °F 75% 30.06 in 10.0 mi South 25.3 mph 32.2 mph N/A   Clear
5:55 PM 18.1 °F 0.4 °F 11.3 °F 75% 30.05 in 10.0 mi South 24.2 mph 33.4 mph N/A   Clear
6:15 PM 18.1 °F 1.6 °F 11.7 °F 76% 30.04 in 10.0 mi South 20.7 mph 28.8 mph N/A   Clear
6:35 PM 18.0 °F -0.5 °F 11.7 °F 76% 30.04 in 10.0 mi South 26.5 mph - N/A   Clear
6:55 PM 18.3 °F 1.0 °F 12.2 °F 77% 30.03 in 10.0 mi South 23.0 mph 29.9 mph N/A   Clear
7:15 PM 18.9 °F 1.7 °F 12.7 °F 77% 30.01 in 10.0 mi South 23.0 mph 29.9 mph N/A   Clear
7:35 PM 19.4 °F 1.8 °F 13.1 °F 76% 30.00 in 10.0 mi South 25.3 mph 32.2 mph N/A   Clear
7:55 PM 19.8 °F 1.9 °F 13.6 °F 77% 29.98 in 10.0 mi South 26.5 mph 34.5 mph N/A   Clear
8:15 PM 20.1 °F 2.4 °F 14.0 °F 77% 29.96 in 10.0 mi South 26.5 mph 32.2 mph N/A   Clear
8:35 PM 20.3 °F 3.3 °F 14.0 °F 77% 29.94 in 10.0 mi South 24.2 mph 32.2 mph N/A   Clear
8:55 PM 20.7 °F 4.5 °F 14.0 °F 75% 29.94 in 10.0 mi South 21.9 mph 27.6 mph N/A   Clear
9:15 PM 21.2 °F 3.9 °F 14.5 °F 75% 29.93 in 10.0 mi South 26.5 mph 31.1 mph N/A   Clear
9:35 PM 21.7 °F 4.9 °F 14.7 °F 74% 29.92 in 10.0 mi South 25.3 mph 35.7 mph N/A   Clear
9:55 PM 21.9 °F 5.1 °F 14.7 °F 74% 29.93 in 10.0 mi South 25.3 mph 29.9 mph N/A   Clear
10:15 PM 21.7 °F 4.6 °F 14.5 °F 74% 29.92 in 10.0 mi South 26.5 mph 31.1 mph N/A   Clear
10:35 PM 21.9 °F 6.2 °F 14.7 °F 74% 29.91 in 10.0 mi South 21.9 mph 35.7 mph N/A   Clear
10:55 PM 21.7 °F 5.2 °F 14.9 °F 75% 29.91 in 10.0 mi South 24.2 mph 32.2 mph N/A   Clear
11:15 PM 21.9 °F 5.1 °F 14.9 °F 74% 29.90 in 10.0 mi South 25.3 mph 31.1 mph N/A   Clear
11:35 PM 21.9 °F 5.1 °F 15.1 °F 75% 29.90 in 10.0 mi South 25.3 mph 29.9 mph N/A   Clear
11:55 PM 21.9 °F 5.1 °F 15.3 °F 76% 29.89 in 10.0 mi South 25.3 mph 31.1 mph N/A   Clear